Time,TemperatureF,DewpointF,PressureIn,WindDirection,WindDirectionDegrees,WindSpeedMPH,WindSpeedGustMPH,Humidity,HourlyPrecipIn,Conditions,Clouds,dailyrainin,SoftwareType,DateUTC
2013-01-22 00:00:00,17.8,4.0,30.44,NNE,22,2.0,6.0,54,0.00,,,0.00,VWS V14.00,2013-01-22 06:00:00,
2013-01-22 00:05:00,17.8,3.6,30.44,North,0,3.0,6.0,53,0.00,,,0.00,VWS V14.00,2013-01-22 06:05:00,
2013-01-22 00:10:00,17.8,3.6,30.44,North,0,2.0,5.0,53,0.00,,,0.00,VWS V14.00,2013-01-22 06:10:00,
2013-01-22 00:15:00,17.8,4.0,30.44,NNE,22,2.0,6.0,54,0.00,,,0.00,VWS V14.00,2013-01-22 06:15:00,
2013-01-22 00:20:00,17.9,3.7,30.44,NNE,22,3.0,7.0,53,0.00,,,0.00,VWS V14.00,2013-01-22 06:20:00,
2013-01-22 00:25:00,17.8,3.6,30.44,NNE,22,2.0,6.0,53,0.00,,,0.00,VWS V14.00,2013-01-22 06:25:00,
2013-01-22 00:30:00,17.8,4.0,30.44,North,0,3.0,7.0,54,0.00,,,0.00,VWS V14.00,2013-01-22 06:30:00,
2013-01-22 00:35:00,17.7,3.9,30.44,North,0,2.0,6.0,54,0.00,,,0.00,VWS V14.00,2013-01-22 06:35:00,
2013-01-22 00:40:00,17.8,4.0,30.44,North,0,2.0,6.0,54,0.00,,,0.00,VWS V14.00,2013-01-22 06:40:00,
2013-01-22 00:45:00,17.8,3.6,30.44,North,0,3.0,7.0,53,0.00,,,0.00,VWS V14.00,2013-01-22 06:45:00,
2013-01-22 00:50:00,17.7,3.9,30.44,North,0,3.0,7.0,54,0.00,,,0.00,VWS V14.00,2013-01-22 06:50:00,
2013-01-22 00:55:00,17.7,3.5,30.44,North,0,2.0,6.0,53,0.00,,,0.00,VWS V14.00,2013-01-22 06:55:00,
2013-01-22 01:00:00,17.7,3.9,30.44,North,0,3.0,6.0,54,0.00,,,0.00,VWS V14.00,2013-01-22 07:00:00,
2013-01-22 01:05:00,17.7,3.9,30.44,North,0,3.0,5.0,54,0.00,,,0.00,VWS V14.00,2013-01-22 07:05:00,
2013-01-22 01:10:00,17.7,3.9,30.44,North,0,2.0,7.0,54,0.00,,,0.00,VWS V14.00,2013-01-22 07:10:00,
2013-01-22 01:15:00,17.7,3.9,30.44,NNE,22,3.0,6.0,54,0.00,,,0.00,VWS V14.00,2013-01-22 07:15:00,
2013-01-22 01:20:00,17.6,4.2,30.44,NE,45,2.0,6.0,55,0.00,,,0.00,VWS V14.00,2013-01-22 07:20:00,
2013-01-22 01:25:00,17.6,3.8,30.44,NNE,22,4.0,7.0,54,0.00,,,0.00,VWS V14.00,2013-01-22 07:25:00,
2013-01-22 01:30:00,17.6,3.8,30.43,North,0,3.0,8.0,54,0.00,,,0.00,VWS V14.00,2013-01-22 07:30:00,
2013-01-22 01:35:00,17.6,3.8,30.43,NNE,22,2.0,5.0,54,0.00,,,0.00,VWS V14.00,2013-01-22 07:35:00,
2013-01-22 01:40:00,17.6,3.8,30.44,NE,45,3.0,6.0,54,0.00,,,0.00,VWS V14.00,2013-01-22 07:40:00,
2013-01-22 01:45:00,17.5,3.7,30.44,NNE,22,4.0,9.0,54,0.00,,,0.00,VWS V14.00,2013-01-22 07:45:00,
2013-01-22 01:50:00,17.5,4.1,30.44,NNE,22,4.0,9.0,55,0.00,,,0.00,VWS V14.00,2013-01-22 07:50:00,
2013-01-22 01:55:00,17.5,4.5,30.44,NE,45,4.0,9.0,56,0.00,,,0.00,VWS V14.00,2013-01-22 07:55:00,
2013-01-22 02:00:00,17.5,4.1,30.44,NE,45,3.0,9.0,55,0.00,,,0.00,VWS V14.00,2013-01-22 08:00:00,
2013-01-22 02:05:00,17.5,4.1,30.44,NNE,22,2.0,7.0,55,0.00,,,0.00,VWS V14.00,2013-01-22 08:05:00,
2013-01-22 02:10:00,17.5,4.1,30.44,NNE,22,3.0,7.0,55,0.00,,,0.00,VWS V14.00,2013-01-22 08:10:00,
2013-01-22 02:15:00,17.5,4.5,30.43,NE,45,1.0,4.0,56,0.00,,,0.00,VWS V14.00,2013-01-22 08:15:00,
2013-01-22 02:20:00,17.5,4.1,30.44,NE,45,3.0,7.0,55,0.00,,,0.00,VWS V14.00,2013-01-22 08:20:00,
2013-01-22 02:25:00,17.4,4.4,30.44,NE,45,2.0,5.0,56,0.00,,,0.00,VWS V14.00,2013-01-22 08:25:00,
2013-01-22 02:30:00,17.4,4.0,30.43,NNE,22,4.0,7.0,55,0.00,,,0.00,VWS V14.00,2013-01-22 08:30:00,
2013-01-22 02:35:00,17.4,4.0,30.44,NNE,22,3.0,6.0,55,0.00,,,0.00,VWS V14.00,2013-01-22 08:35:00,
2013-01-22 02:40:00,17.4,4.0,30.45,NNE,22,2.0,5.0,55,0.00,,,0.00,VWS V14.00,2013-01-22 08:40:00,
2013-01-22 02:45:00,17.4,4.4,30.45,NE,45,1.0,4.0,56,0.00,,,0.00,VWS V14.00,2013-01-22 08:45:00,
2013-01-22 02:50:00,17.4,4.0,30.45,NE,45,3.0,7.0,55,0.00,,,0.00,VWS V14.00,2013-01-22 08:50:00,
2013-01-22 02:55:00,17.4,4.0,30.46,NNE,22,3.0,6.0,55,0.00,,,0.00,VWS V14.00,2013-01-22 08:55:00,
2013-01-22 03:00:00,17.4,4.0,30.46,NNE,22,1.0,5.0,55,0.00,,,0.00,VWS V14.00,2013-01-22 09:00:00,
2013-01-22 03:05:00,17.4,4.4,30.46,North,0,3.0,6.0,56,0.00,,,0.00,VWS V14.00,2013-01-22 09:05:00,
2013-01-22 03:10:00,17.4,4.0,30.46,NE,45,3.0,8.0,55,0.00,,,0.00,VWS V14.00,2013-01-22 09:10:00,
2013-01-22 03:15:00,17.4,4.0,30.45,NNE,22,5.0,8.0,55,0.00,,,0.00,VWS V14.00,2013-01-22 09:15:00,
2013-01-22 03:20:00,17.4,4.4,30.45,NNE,22,4.0,8.0,56,0.00,,,0.00,VWS V14.00,2013-01-22 09:20:00,
2013-01-22 03:25:00,17.4,4.0,30.45,NNE,22,3.0,6.0,55,0.00,,,0.00,VWS V14.00,2013-01-22 09:25:00,
2013-01-22 03:30:00,17.4,4.4,30.45,NNE,22,2.0,6.0,56,0.00,,,0.00,VWS V14.00,2013-01-22 09:30:00,
2013-01-22 03:35:00,17.3,3.9,30.45,NE,45,3.0,6.0,55,0.00,,,0.00,VWS V14.00,2013-01-22 09:35:00,
2013-01-22 03:40:00,17.3,3.5,30.45,NNE,22,4.0,8.0,54,0.00,,,0.00,VWS V14.00,2013-01-22 09:40:00,
2013-01-22 03:45:00,17.2,4.2,30.45,North,0,3.0,8.0,56,0.00,,,0.00,VWS V14.00,2013-01-22 09:45:00,
2013-01-22 03:50:00,17.2,3.8,30.45,NNE,22,3.0,7.0,55,0.00,,,0.00,VWS V14.00,2013-01-22 09:50:00,
2013-01-22 03:55:00,17.2,3.8,30.44,NNE,22,3.0,8.0,55,0.00,,,0.00,VWS V14.00,2013-01-22 09:55:00,
2013-01-22 04:00:00,17.1,3.3,30.44,NE,45,4.0,8.0,54,0.00,,,0.00,VWS V14.00,2013-01-22 10:00:00,
2013-01-22 04:05:00,17.0,4.0,30.44,NE,45,4.0,8.0,56,0.00,,,0.00,VWS V14.00,2013-01-22 10:05:00,
2013-01-22 04:10:00,16.9,3.5,30.44,NE,45,5.0,9.0,55,0.00,,,0.00,VWS V14.00,2013-01-22 10:10:00,
2013-01-22 04:15:00,16.9,3.9,30.43,NNE,22,2.0,6.0,56,0.00,,,0.00,VWS V14.00,2013-01-22 10:15:00,
2013-01-22 04:20:00,16.9,3.9,30.43,NE,45,2.0,5.0,56,0.00,,,0.00,VWS V14.00,2013-01-22 10:20:00,
2013-01-22 04:25:00,16.8,3.5,30.43,NE,45,3.0,7.0,55,0.00,,,0.00,VWS V14.00,2013-01-22 10:25:00,
2013-01-22 04:30:00,16.8,4.2,30.44,ENE,68,4.0,8.0,57,0.00,,,0.00,VWS V14.00,2013-01-22 10:30:00,
2013-01-22 04:35:00,16.7,4.5,30.43,NE,45,3.0,8.0,58,0.00,,,0.00,VWS V14.00,2013-01-22 10:35:00,
2013-01-22 04:40:00,16.7,4.1,30.44,NE,45,3.0,8.0,57,0.00,,,0.00,VWS V14.00,2013-01-22 10:40:00,
2013-01-22 04:45:00,16.7,4.1,30.44,NE,45,4.0,8.0,57,0.00,,,0.00,VWS V14.00,2013-01-22 10:45:00,
2013-01-22 04:50:00,16.6,4.0,30.44,NE,45,4.0,8.0,57,0.00,,,0.00,VWS V14.00,2013-01-22 10:50:00,
2013-01-22 04:55:00,16.6,4.4,30.43,NE,45,5.0,8.0,58,0.00,,,0.00,VWS V14.00,2013-01-22 10:55:00,
2013-01-22 05:00:00,16.5,4.3,30.43,NE,45,5.0,10.0,58,0.00,,,0.00,VWS V14.00,2013-01-22 11:00:00,
2013-01-22 05:05:00,16.4,3.8,30.43,NE,45,5.0,10.0,57,0.00,,,0.00,VWS V14.00,2013-01-22 11:05:00,
2013-01-22 05:10:00,16.2,4.0,30.43,NE,45,3.0,7.0,58,0.00,,,0.00,VWS V14.00,2013-01-22 11:10:00,
2013-01-22 05:15:00,16.2,4.4,30.43,NE,45,4.0,8.0,59,0.00,,,0.00,VWS V14.00,2013-01-22 11:15:00,
2013-01-22 05:20:00,16.1,3.9,30.44,NE,45,2.0,7.0,58,0.00,,,0.00,VWS V14.00,2013-01-22 11:20:00,
2013-01-22 05:25:00,16.0,4.6,30.44,NE,45,2.0,6.0,60,0.00,,,0.00,VWS V14.00,2013-01-22 11:25:00,
2013-01-22 05:30:00,15.9,4.8,30.44,NE,45,4.0,8.0,61,0.00,,,0.00,VWS V14.00,2013-01-22 11:30:00,
2013-01-22 05:35:00,15.7,5.0,30.44,NE,45,3.0,7.0,62,0.00,,,0.00,VWS V14.00,2013-01-22 11:35:00,
2013-01-22 05:40:00,15.6,5.3,30.43,NE,45,2.0,6.0,63,0.00,,,0.00,VWS V14.00,2013-01-22 11:40:00,
2013-01-22 05:45:00,15.5,5.5,30.44,NE,45,3.0,6.0,64,0.00,,,0.00,VWS V14.00,2013-01-22 11:45:00,
2013-01-22 05:50:00,15.5,5.5,30.43,NE,45,3.0,9.0,64,0.00,,,0.00,VWS V14.00,2013-01-22 11:50:00,
2013-01-22 05:55:00,15.5,5.5,30.43,NE,45,3.0,8.0,64,0.00,,,0.00,VWS V14.00,2013-01-22 11:55:00,
2013-01-22 06:00:00,15.4,5.8,30.43,ENE,68,4.0,8.0,65,0.00,,,0.00,VWS V14.00,2013-01-22 12:00:00,
2013-01-22 06:05:00,15.3,5.3,30.43,ENE,68,4.0,8.0,64,0.00,,,0.00,VWS V14.00,2013-01-22 12:05:00,
2013-01-22 06:10:00,15.1,5.1,30.43,ENE,68,3.0,5.0,64,0.00,,,0.00,VWS V14.00,2013-01-22 12:10:00,
2013-01-22 06:15:00,14.9,5.6,30.43,ENE,68,3.0,6.0,66,0.00,,,0.00,VWS V14.00,2013-01-22 12:15:00,
2013-01-22 06:20:00,14.8,5.5,30.44,ENE,68,2.0,5.0,66,0.00,,,0.00,VWS V14.00,2013-01-22 12:20:00,
2013-01-22 06:25:00,14.6,5.3,30.44,ENE,68,3.0,5.0,66,0.00,,,0.00,VWS V14.00,2013-01-22 12:25:00,
2013-01-22 06:30:00,14.5,5.2,30.45,ENE,68,2.0,6.0,66,0.00,,,0.00,VWS V14.00,2013-01-22 12:30:00,
2013-01-22 06:35:00,14.4,5.5,30.46,NE,45,2.0,4.0,67,0.00,,,0.00,VWS V14.00,2013-01-22 12:35:00,
2013-01-22 06:40:00,14.2,5.3,30.45,NE,45,2.0,3.0,67,0.00,,,0.00,VWS V14.00,2013-01-22 12:40:00,
2013-01-22 06:45:00,14.0,5.7,30.46,NE,45,2.0,4.0,69,0.00,,,0.00,VWS V14.00,2013-01-22 12:45:00,
2013-01-22 06:50:00,13.8,5.5,30.46,NE,45,2.0,4.0,69,0.00,,,0.00,VWS V14.00,2013-01-22 12:50:00,
2013-01-22 06:55:00,13.6,5.7,30.46,NE,45,2.0,4.0,70,0.00,,,0.00,VWS V14.00,2013-01-22 12:55:00,
2013-01-22 07:00:00,13.5,5.9,30.46,NE,45,2.0,3.0,71,0.00,,,0.00,VWS V14.00,2013-01-22 13:00:00,
2013-01-22 07:05:00,13.2,5.9,30.45,NE,45,3.0,4.0,72,0.00,,,0.00,VWS V14.00,2013-01-22 13:05:00,
2013-01-22 07:10:00,13.1,6.1,30.45,NE,45,3.0,4.0,73,0.00,,,0.00,VWS V14.00,2013-01-22 13:10:00,
2013-01-22 07:15:00,13.2,6.5,30.44,NE,45,3.0,5.0,74,0.00,,,0.00,VWS V14.00,2013-01-22 13:15:00,
2013-01-22 07:20:00,13.3,6.0,30.44,NE,45,4.0,7.0,72,0.00,,,0.00,VWS V14.00,2013-01-22 13:20:00,
2013-01-22 07:25:00,13.6,6.0,30.44,NE,45,3.0,5.0,71,0.00,,,0.00,VWS V14.00,2013-01-22 13:25:00,
2013-01-22 07:30:00,13.9,6.2,30.44,ENE,68,3.0,5.0,71,0.00,,,0.00,VWS V14.00,2013-01-22 13:30:00,
2013-01-22 07:35:00,14.1,6.4,30.44,ENE,68,2.0,5.0,71,0.00,,,0.00,VWS V14.00,2013-01-22 13:35:00,
2013-01-22 07:40:00,14.3,5.7,30.44,ENE,68,3.0,6.0,68,0.00,,,0.00,VWS V14.00,2013-01-22 13:40:00,
2013-01-22 07:45:00,14.4,5.8,30.45,ENE,68,3.0,6.0,68,0.00,,,0.00,VWS V14.00,2013-01-22 13:45:00,
2013-01-22 07:50:00,14.6,5.7,30.45,NE,45,2.0,6.0,67,0.00,,,0.00,VWS V14.00,2013-01-22 13:50:00,
2013-01-22 07:55:00,14.7,5.4,30.46,ENE,68,3.0,6.0,66,0.00,,,0.00,VWS V14.00,2013-01-22 13:55:00,
2013-01-22 08:00:00,14.8,5.8,30.45,NE,45,3.0,7.0,67,0.00,,,0.00,VWS V14.00,2013-01-22 14:00:00,
2013-01-22 08:05:00,14.8,5.2,30.45,ENE,68,4.0,7.0,65,0.00,,,0.00,VWS V14.00,2013-01-22 14:05:00,
2013-01-22 08:10:00,14.9,5.6,30.44,ENE,68,5.0,9.0,66,0.00,,,0.00,VWS V14.00,2013-01-22 14:10:00,
2013-01-22 08:15:00,15.2,5.6,30.45,ENE,68,4.0,7.0,65,0.00,,,0.00,VWS V14.00,2013-01-22 14:15:00,
2013-01-22 08:20:00,15.5,5.5,30.46,NE,45,3.0,7.0,64,0.00,,,0.00,VWS V14.00,2013-01-22 14:20:00,
2013-01-22 08:25:00,15.7,5.4,30.47,ENE,68,3.0,9.0,63,0.00,,,0.00,VWS V14.00,2013-01-22 14:25:00,
2013-01-22 08:30:00,15.7,5.0,30.47,NE,45,3.0,7.0,62,0.00,,,0.00,VWS V14.00,2013-01-22 14:30:00,
2013-01-22 08:35:00,15.7,5.4,30.46,NE,45,2.0,5.0,63,0.00,,,0.00,VWS V14.00,2013-01-22 14:35:00,
2013-01-22 08:40:00,15.9,4.5,30.46,ENE,68,5.0,9.0,60,0.00,,,0.00,VWS V14.00,2013-01-22 14:40:00,
2013-01-22 08:45:00,16.3,4.9,30.46,NE,45,4.0,9.0,60,0.00,,,0.00,VWS V14.00,2013-01-22 14:45:00,
2013-01-22 08:50:00,16.7,4.5,30.46,ENE,68,6.0,9.0,58,0.00,,,0.00,VWS V14.00,2013-01-22 14:50:00,
2013-01-22 08:55:00,17.0,4.4,30.46,ENE,68,6.0,10.0,57,0.00,,,0.00,VWS V14.00,2013-01-22 14:55:00,
2013-01-22 09:00:00,17.5,4.5,30.46,East,90,6.0,10.0,56,0.00,,,0.00,VWS V14.00,2013-01-22 15:00:00,
2013-01-22 09:05:00,17.7,5.1,30.46,ESE,112,4.0,8.0,57,0.00,,,0.00,VWS V14.00,2013-01-22 15:05:00,
2013-01-22 09:10:00,18.0,4.6,30.46,East,90,5.0,9.0,55,0.00,,,0.00,VWS V14.00,2013-01-22 15:10:00,
2013-01-22 09:15:00,18.0,4.6,30.47,ENE,68,5.0,10.0,55,0.00,,,0.00,VWS V14.00,2013-01-22 15:15:00,
2013-01-22 09:20:00,18.1,5.4,30.47,ENE,68,3.0,9.0,57,0.00,,,0.00,VWS V14.00,2013-01-22 15:20:00,
2013-01-22 09:25:00,18.3,5.6,30.47,ENE,68,4.0,7.0,57,0.00,,,0.00,VWS V14.00,2013-01-22 15:25:00,
2013-01-22 09:30:00,18.5,5.4,30.47,East,90,7.0,10.0,56,0.00,,,0.00,VWS V14.00,2013-01-22 15:30:00,
2013-01-22 09:35:00,18.6,5.1,30.48,ENE,68,4.0,9.0,55,0.00,,,0.00,VWS V14.00,2013-01-22 15:35:00,
2013-01-22 09:40:00,18.9,5.0,30.48,ENE,68,5.0,9.0,54,0.00,,,0.00,VWS V14.00,2013-01-22 15:40:00,
2013-01-22 09:45:00,18.8,4.5,30.48,ENE,68,6.0,9.0,53,0.00,,,0.00,VWS V14.00,2013-01-22 15:45:00,
2013-01-22 09:50:00,18.8,4.9,30.48,ENE,68,6.0,10.0,54,0.00,,,0.00,VWS V14.00,2013-01-22 15:50:00,
2013-01-22 09:55:00,19.1,5.2,30.48,East,90,4.0,10.0,54,0.00,,,0.00,VWS V14.00,2013-01-22 15:55:00,
2013-01-22 10:00:00,19.3,4.6,30.48,East,90,5.0,9.0,52,0.00,,,0.00,VWS V14.00,2013-01-22 16:00:00,
2013-01-22 10:05:00,19.5,5.6,30.49,East,90,5.0,8.0,54,0.00,,,0.00,VWS V14.00,2013-01-22 16:05:00,
2013-01-22 10:10:00,19.7,5.3,30.48,ENE,68,6.0,10.0,53,0.00,,,0.00,VWS V14.00,2013-01-22 16:10:00,
2013-01-22 10:15:00,19.6,4.8,30.48,ENE,68,7.0,10.0,52,0.00,,,0.00,VWS V14.00,2013-01-22 16:15:00,
2013-01-22 10:20:00,19.8,5.4,30.48,ENE,68,5.0,9.0,53,0.00,,,0.00,VWS V14.00,2013-01-22 16:20:00,
2013-01-22 10:25:00,20.1,5.7,30.48,NE,45,5.0,11.0,53,0.00,,,0.00,VWS V14.00,2013-01-22 16:25:00,
2013-01-22 10:30:00,20.4,5.6,30.49,ENE,68,4.0,11.0,52,0.00,,,0.00,VWS V14.00,2013-01-22 16:30:00,
2013-01-22 10:35:00,20.7,6.3,30.49,East,90,3.0,8.0,53,0.00,,,0.00,VWS V14.00,2013-01-22 16:35:00,
2013-01-22 10:40:00,20.9,6.1,30.49,East,90,5.0,9.0,52,0.00,,,0.00,VWS V14.00,2013-01-22 16:40:00,
2013-01-22 10:45:00,21.1,5.8,30.49,ENE,68,5.0,11.0,51,0.00,,,0.00,VWS V14.00,2013-01-22 16:45:00,
2013-01-22 10:50:00,21.1,5.8,30.49,NE,45,5.0,10.0,51,0.00,,,0.00,VWS V14.00,2013-01-22 16:50:00,
2013-01-22 10:55:00,21.2,5.9,30.49,ENE,68,6.0,11.0,51,0.00,,,0.00,VWS V14.00,2013-01-22 16:55:00,
2013-01-22 11:00:00,21.5,6.2,30.49,East,90,4.0,8.0,51,0.00,,,0.00,VWS V14.00,2013-01-22 17:00:00,
2013-01-22 11:05:00,21.4,5.7,30.49,ENE,68,7.0,11.0,50,0.00,,,0.00,VWS V14.00,2013-01-22 17:05:00,
2013-01-22 11:10:00,21.6,5.8,30.48,ENE,68,7.0,12.0,50,0.00,,,0.00,VWS V14.00,2013-01-22 17:10:00,
2013-01-22 11:15:00,21.8,5.6,30.48,ENE,68,4.0,10.0,49,0.00,,,0.00,VWS V14.00,2013-01-22 17:15:00,
2013-01-22 11:20:00,22.2,6.0,30.48,ENE,68,8.0,11.0,49,0.00,,,0.00,VWS V14.00,2013-01-22 17:20:00,
2013-01-22 11:25:00,22.3,5.6,30.48,NE,45,5.0,10.0,48,0.00,,,0.00,VWS V14.00,2013-01-22 17:25:00,
2013-01-22 11:30:00,22.8,6.5,30.48,East,90,6.0,9.0,49,0.00,,,0.00,VWS V14.00,2013-01-22 17:30:00,
2013-01-22 11:35:00,23.5,5.8,30.47,ENE,68,7.0,12.0,46,0.00,,,0.00,VWS V14.00,2013-01-22 17:35:00,
2013-01-22 11:40:00,23.9,7.5,30.47,East,90,5.0,9.0,49,0.00,,,0.00,VWS V14.00,2013-01-22 17:40:00,
2013-01-22 11:45:00,24.4,6.1,30.46,ENE,68,4.0,9.0,45,0.00,,,0.00,VWS V14.00,2013-01-22 17:45:00,
2013-01-22 11:50:00,24.7,6.4,30.46,East,90,6.0,10.0,45,0.00,,,0.00,VWS V14.00,2013-01-22 17:50:00,
2013-01-22 11:55:00,25.0,6.7,30.45,East,90,5.0,9.0,45,0.00,,,0.00,VWS V14.00,2013-01-22 17:55:00,
2013-01-22 12:00:00,25.6,7.2,30.45,NE,45,4.0,10.0,45,0.00,,,0.00,VWS V14.00,2013-01-22 18:00:00,
2013-01-22 12:05:00,25.9,7.0,30.45,NE,45,5.0,10.0,44,0.00,,,0.00,VWS V14.00,2013-01-22 18:05:00,
2013-01-22 12:10:00,25.6,6.7,30.44,ENE,68,4.0,8.0,44,0.00,,,0.00,VWS V14.00,2013-01-22 18:10:00,
2013-01-22 12:15:00,25.8,7.4,30.44,East,90,3.0,7.0,45,0.00,,,0.00,VWS V14.00,2013-01-22 18:15:00,
2013-01-22 12:20:00,26.6,7.6,30.44,East,90,5.0,11.0,44,0.00,,,0.00,VWS V14.00,2013-01-22 18:20:00,
2013-01-22 12:25:00,26.3,6.3,30.43,East,90,2.0,8.0,42,0.00,,,0.00,VWS V14.00,2013-01-22 18:25:00,
2013-01-22 12:30:00,26.3,6.9,30.43,NE,45,4.0,8.0,43,0.00,,,0.00,VWS V14.00,2013-01-22 18:30:00,
2013-01-22 12:35:00,26.7,7.7,30.42,East,90,2.0,6.0,44,0.00,,,0.00,VWS V14.00,2013-01-22 18:35:00,
2013-01-22 12:40:00,27.1,6.5,30.42,East,90,5.0,11.0,41,0.00,,,0.00,VWS V14.00,2013-01-22 18:40:00,
2013-01-22 12:45:00,27.1,7.6,30.42,ENE,68,4.0,9.0,43,0.00,,,0.00,VWS V14.00,2013-01-22 18:45:00,
2013-01-22 12:50:00,27.1,7.1,30.42,ENE,68,5.0,10.0,42,0.00,,,0.00,VWS V14.00,2013-01-22 18:50:00,
2013-01-22 12:55:00,27.4,7.3,30.41,ESE,112,4.0,8.0,42,0.00,,,0.00,VWS V14.00,2013-01-22 18:55:00,
2013-01-22 13:00:00,27.6,8.0,30.41,ESE,112,5.0,9.0,43,0.00,,,0.00,VWS V14.00,2013-01-22 19:00:00,
2013-01-22 13:05:00,27.7,7.6,30.41,East,90,2.0,7.0,42,0.00,,,0.00,VWS V14.00,2013-01-22 19:05:00,
2013-01-22 13:10:00,27.9,6.7,30.40,ENE,68,4.0,10.0,40,0.00,,,0.00,VWS V14.00,2013-01-22 19:10:00,
2013-01-22 13:15:00,27.8,7.2,30.40,NE,45,5.0,9.0,41,0.00,,,0.00,VWS V14.00,2013-01-22 19:15:00,
2013-01-22 13:20:00,27.8,7.2,30.40,SE,135,5.0,10.0,41,0.00,,,0.00,VWS V14.00,2013-01-22 19:20:00,
2013-01-22 13:25:00,28.1,8.0,30.39,ESE,112,2.0,8.0,42,0.00,,,0.00,VWS V14.00,2013-01-22 19:25:00,
2013-01-22 13:30:00,28.5,8.3,30.39,ENE,68,4.0,10.0,42,0.00,,,0.00,VWS V14.00,2013-01-22 19:30:00,
2013-01-22 13:35:00,28.9,8.2,30.39,East,90,3.0,9.0,41,0.00,,,0.00,VWS V14.00,2013-01-22 19:35:00,
2013-01-22 13:40:00,28.9,8.2,30.38,ENE,68,3.0,8.0,41,0.00,,,0.00,VWS V14.00,2013-01-22 19:40:00,
2013-01-22 13:45:00,29.0,8.3,30.38,East,90,3.0,7.0,41,0.00,,,0.00,VWS V14.00,2013-01-22 19:45:00,
2013-01-22 13:50:00,29.2,8.4,30.38,East,90,4.0,13.0,41,0.00,,,0.00,VWS V14.00,2013-01-22 19:50:00,
2013-01-22 13:55:00,29.3,8.5,30.39,ENE,68,2.0,7.0,41,0.00,,,0.00,VWS V14.00,2013-01-22 19:55:00,
2013-01-22 14:00:00,29.4,8.1,30.38,NE,45,5.0,11.0,40,0.00,,,0.00,VWS V14.00,2013-01-22 20:00:00,
2013-01-22 14:05:00,29.3,8.0,30.38,East,90,5.0,9.0,40,0.00,,,0.00,VWS V14.00,2013-01-22 20:05:00,
2013-01-22 14:10:00,29.2,9.0,30.38,NE,45,3.0,7.0,42,0.00,,,0.00,VWS V14.00,2013-01-22 20:10:00,
2013-01-22 14:15:00,29.2,8.4,30.38,ESE,112,3.0,8.0,41,0.00,,,0.00,VWS V14.00,2013-01-22 20:15:00,
2013-01-22 14:20:00,29.3,8.5,30.37,SE,135,5.0,12.0,41,0.00,,,0.00,VWS V14.00,2013-01-22 20:20:00,
2013-01-22 14:25:00,29.4,8.1,30.37,ENE,68,4.0,9.0,40,0.00,,,0.00,VWS V14.00,2013-01-22 20:25:00,
2013-01-22 14:30:00,29.7,8.9,30.38,East,90,4.0,9.0,41,0.00,,,0.00,VWS V14.00,2013-01-22 20:30:00,
2013-01-22 14:35:00,30.0,8.6,30.37,ENE,68,6.0,10.0,40,0.00,,,0.00,VWS V14.00,2013-01-22 20:35:00,
2013-01-22 14:40:00,30.2,8.8,30.37,East,90,3.0,8.0,40,0.00,,,0.00,VWS V14.00,2013-01-22 20:40:00,
2013-01-22 14:45:00,30.5,9.1,30.37,NE,45,5.0,10.0,40,0.00,,,0.00,VWS V14.00,2013-01-22 20:45:00,
2013-01-22 14:50:00,30.5,8.5,30.37,East,90,5.0,10.0,39,0.00,,,0.00,VWS V14.00,2013-01-22 20:50:00,
2013-01-22 14:55:00,30.6,8.6,30.37,ESE,112,3.0,8.0,39,0.00,,,0.00,VWS V14.00,2013-01-22 20:55:00,
2013-01-22 15:00:00,30.8,9.3,30.36,ENE,68,4.0,9.0,40,0.00,,,0.00,VWS V14.00,2013-01-22 21:00:00,
2013-01-22 15:05:00,30.8,9.3,30.36,ESE,112,5.0,8.0,40,0.00,,,0.00,VWS V14.00,2013-01-22 21:05:00,
2013-01-22 15:10:00,30.5,9.1,30.36,East,90,4.0,7.0,40,0.00,,,0.00,VWS V14.00,2013-01-22 21:10:00,
2013-01-22 15:15:00,30.4,9.0,30.36,East,90,4.0,8.0,40,0.00,,,0.00,VWS V14.00,2013-01-22 21:15:00,
2013-01-22 15:20:00,30.3,8.9,30.36,ENE,68,5.0,9.0,40,0.00,,,0.00,VWS V14.00,2013-01-22 21:20:00,
2013-01-22 15:25:00,30.1,9.3,30.35,East,90,4.0,9.0,41,0.00,,,0.00,VWS V14.00,2013-01-22 21:25:00,
2013-01-22 15:30:00,30.1,9.3,30.35,East,90,7.0,12.0,41,0.00,,,0.00,VWS V14.00,2013-01-22 21:30:00,
2013-01-22 15:35:00,30.1,9.3,30.34,ESE,112,5.0,9.0,41,0.00,,,0.00,VWS V14.00,2013-01-22 21:35:00,
2013-01-22 15:40:00,30.0,9.2,30.34,East,90,5.0,11.0,41,0.00,,,0.00,VWS V14.00,2013-01-22 21:40:00,
2013-01-22 15:45:00,30.0,9.7,30.34,East,90,3.0,7.0,42,0.00,,,0.00,VWS V14.00,2013-01-22 21:45:00,
2013-01-22 15:50:00,30.0,10.2,30.34,ENE,68,7.0,13.0,43,0.00,,,0.00,VWS V14.00,2013-01-22 21:50:00,
2013-01-22 15:55:00,29.9,10.1,30.34,East,90,6.0,10.0,43,0.00,,,0.00,VWS V14.00,2013-01-22 21:55:00,
2013-01-22 16:00:00,29.8,10.1,30.34,ENE,68,6.0,9.0,43,0.00,,,0.00,VWS V14.00,2013-01-22 22:00:00,
2013-01-22 16:05:00,29.8,10.6,30.34,ESE,112,5.0,8.0,44,0.00,,,0.00,VWS V14.00,2013-01-22 22:05:00,
2013-01-22 16:10:00,30.0,9.7,30.34,East,90,3.0,8.0,42,0.00,,,0.00,VWS V14.00,2013-01-22 22:10:00,
2013-01-22 16:15:00,29.8,9.5,30.34,East,90,5.0,9.0,42,0.00,,,0.00,VWS V14.00,2013-01-22 22:15:00,
2013-01-22 16:20:00,29.6,10.4,30.34,East,90,4.0,8.0,44,0.00,,,0.00,VWS V14.00,2013-01-22 22:20:00,
2013-01-22 16:25:00,29.5,10.3,30.34,ENE,68,5.0,10.0,44,0.00,,,0.00,VWS V14.00,2013-01-22 22:25:00,
2013-01-22 16:30:00,29.4,10.7,30.34,East,90,3.0,9.0,45,0.00,,,0.00,VWS V14.00,2013-01-22 22:30:00,
2013-01-22 16:35:00,29.2,11.0,30.34,East,90,6.0,10.0,46,0.00,,,0.00,VWS V14.00,2013-01-22 22:35:00,
2013-01-22 16:40:00,28.9,10.7,30.34,East,90,4.0,8.0,46,0.00,,,0.00,VWS V14.00,2013-01-22 22:40:00,
2013-01-22 16:45:00,28.7,10.1,30.34,East,90,5.0,10.0,45,0.00,,,0.00,VWS V14.00,2013-01-22 22:45:00,
2013-01-22 16:50:00,28.5,10.4,30.34,ENE,68,5.0,8.0,46,0.00,,,0.00,VWS V14.00,2013-01-22 22:50:00,
2013-01-22 16:55:00,28.3,10.7,30.34,East,90,4.0,8.0,47,0.00,,,0.00,VWS V14.00,2013-01-22 22:55:00,
2013-01-22 17:00:00,28.2,10.1,30.34,ENE,68,4.0,9.0,46,0.00,,,0.00,VWS V14.00,2013-01-22 23:00:00,
2013-01-22 17:05:00,28.0,10.4,30.34,East,90,5.0,7.0,47,0.00,,,0.00,VWS V14.00,2013-01-22 23:05:00,
2013-01-22 17:10:00,27.8,10.2,30.34,East,90,3.0,8.0,47,0.00,,,0.00,VWS V14.00,2013-01-22 23:10:00,
2013-01-22 17:15:00,27.6,10.9,30.34,ENE,68,3.0,6.0,49,0.00,,,0.00,VWS V14.00,2013-01-22 23:15:00,
2013-01-22 17:20:00,27.4,10.8,30.34,ENE,68,2.0,6.0,49,0.00,,,0.00,VWS V14.00,2013-01-22 23:20:00,
2013-01-22 17:25:00,27.2,11.0,30.35,ENE,68,2.0,5.0,50,0.00,,,0.00,VWS V14.00,2013-01-22 23:25:00,
2013-01-22 17:30:00,26.9,10.8,30.34,ENE,68,3.0,6.0,50,0.00,,,0.00,VWS V14.00,2013-01-22 23:30:00,
2013-01-22 17:35:00,26.7,11.4,30.34,ENE,68,2.0,5.0,52,0.00,,,0.00,VWS V14.00,2013-01-22 23:35:00,
2013-01-22 17:40:00,26.4,11.2,30.34,ENE,68,2.0,5.0,52,0.00,,,0.00,VWS V14.00,2013-01-22 23:40:00,
2013-01-22 17:45:00,26.1,10.0,30.34,NE,45,2.0,4.0,50,0.00,,,0.00,VWS V14.00,2013-01-22 23:45:00,
2013-01-22 17:50:00,25.9,9.8,30.35,NE,45,2.0,5.0,50,0.00,,,0.00,VWS V14.00,2013-01-22 23:50:00,
2013-01-22 17:55:00,25.6,10.0,30.34,NE,45,3.0,5.0,51,0.00,,,0.00,VWS V14.00,2013-01-22 23:55:00,
2013-01-22 18:00:00,25.3,9.7,30.34,NE,45,3.0,5.0,51,0.00,,,0.00,VWS V14.00,2013-01-23 00:00:00,
2013-01-22 18:05:00,25.2,10.1,30.35,NE,45,3.0,7.0,52,0.00,,,0.00,VWS V14.00,2013-01-23 00:05:00,
2013-01-22 18:10:00,25.0,10.7,30.35,NE,45,4.0,8.0,54,0.00,,,0.00,VWS V14.00,2013-01-23 00:10:00,
2013-01-22 18:15:00,24.8,10.5,30.35,NE,45,4.0,8.0,54,0.00,,,0.00,VWS V14.00,2013-01-23 00:15:00,
2013-01-22 18:20:00,24.6,10.8,30.35,NE,45,4.0,7.0,55,0.00,,,0.00,VWS V14.00,2013-01-23 00:20:00,
2013-01-22 18:25:00,24.4,11.4,30.35,NE,45,4.0,7.0,57,0.00,,,0.00,VWS V14.00,2013-01-23 00:25:00,
2013-01-22 18:30:00,24.2,10.8,30.35,NE,45,4.0,7.0,56,0.00,,,0.00,VWS V14.00,2013-01-23 00:30:00,
2013-01-22 18:44:00,24.0,10.6,30.35,NE,45,4.0,7.0,56,0.00,,,0.00,VWS V14.00,2013-01-23 00:44:00,
2013-01-22 18:45:00,23.9,10.5,30.35,ENE,62,5.0,5.0,56,0.00,,,0.00,VWS V14.00,2013-01-23 00:45:00,
2013-01-22 18:49:00,23.8,10.8,30.35,NE,55,5.0,5.0,57,0.00,,,0.00,VWS V14.00,2013-01-23 00:49:00,
2013-01-22 18:54:00,23.6,11.4,30.35,NE,46,3.0,7.0,59,0.00,,,0.00,VWS V14.00,2013-01-23 00:54:00,
2013-01-22 18:59:00,23.5,10.5,30.35,NE,54,4.0,5.0,57,0.00,,,0.00,VWS V14.00,2013-01-23 00:59:00,
2013-01-22 19:04:00,23.4,10.4,30.35,NE,43,2.0,5.0,57,0.00,,,0.00,VWS V14.00,2013-01-23 01:04:00,
2013-01-22 19:09:00,23.2,11.8,30.35,NE,43,2.0,6.0,61,0.00,,,0.00,VWS V14.00,2013-01-23 01:09:00,
2013-01-22 19:14:00,23.0,11.2,30.35,NE,54,3.0,5.0,60,0.00,,,0.00,VWS V14.00,2013-01-23 01:14:00,
2013-01-22 19:19:00,22.8,11.8,30.35,NE,50,2.0,5.0,62,0.00,,,0.00,VWS V14.00,2013-01-23 01:19:00,
2013-01-22 19:24:00,22.6,10.8,30.35,NE,50,3.0,4.0,60,0.00,,,0.00,VWS V14.00,2013-01-23 01:24:00,
2013-01-22 19:29:00,22.3,11.3,30.35,NE,55,3.0,7.0,62,0.00,,,0.00,VWS V14.00,2013-01-23 01:29:00,
2013-01-22 19:34:00,22.1,10.4,30.35,NE,41,3.0,4.0,60,0.00,,,0.00,VWS V14.00,2013-01-23 01:34:00,
2013-01-22 19:39:00,22.0,10.6,30.35,NE,40,3.0,5.0,61,0.00,,,0.00,VWS V14.00,2013-01-23 01:39:00,
2013-01-22 19:44:00,21.8,11.5,30.35,NE,45,1.0,5.0,64,0.00,,,0.00,VWS V14.00,2013-01-23 01:44:00,
2013-01-22 19:49:00,21.6,10.6,30.36,NE,45,2.0,6.0,62,0.00,,,0.00,VWS V14.00,2013-01-23 01:49:00,
2013-01-22 19:54:00,21.4,10.8,30.37,NE,38,5.0,7.0,63,0.00,,,0.00,VWS V14.00,2013-01-23 01:54:00,
2013-01-22 19:59:00,21.3,10.3,30.36,NNE,18,5.0,7.0,62,0.00,,,0.00,VWS V14.00,2013-01-23 01:59:00,
2013-01-22 20:04:00,21.2,10.9,30.36,NE,48,3.0,7.0,64,0.00,,,0.00,VWS V14.00,2013-01-23 02:04:00,
2013-01-22 20:09:00,21.1,11.2,30.36,NE,35,7.0,9.0,65,0.00,,,0.00,VWS V14.00,2013-01-23 02:09:00,
2013-01-22 20:14:00,21.0,11.1,30.36,NE,44,7.0,8.0,65,0.00,,,0.00,VWS V14.00,2013-01-23 02:14:00,
2013-01-22 20:19:00,20.9,11.3,30.36,NE,43,4.0,8.0,66,0.00,,,0.00,VWS V14.00,2013-01-23 02:19:00,
2013-01-22 20:24:00,20.9,11.3,30.36,ENE,59,2.0,9.0,66,0.00,,,0.00,VWS V14.00,2013-01-23 02:24:00,
2013-01-22 20:29:00,20.9,11.0,30.36,NE,52,4.0,7.0,65,0.00,,,0.00,VWS V14.00,2013-01-23 02:29:00,
2013-01-22 20:34:00,20.9,11.0,30.36,NE,38,2.0,8.0,65,0.00,,,0.00,VWS V14.00,2013-01-23 02:34:00,
2013-01-22 20:39:00,20.9,11.3,30.36,ENE,65,5.0,8.0,66,0.00,,,0.00,VWS V14.00,2013-01-23 02:39:00,
2013-01-22 20:44:00,20.8,10.9,30.35,NE,46,2.0,7.0,65,0.00,,,0.00,VWS V14.00,2013-01-23 02:44:00,
2013-01-22 20:49:00,20.6,11.1,30.35,NE,53,3.0,6.0,66,0.00,,,0.00,VWS V14.00,2013-01-23 02:49:00,
2013-01-22 20:54:00,20.4,10.9,30.35,ENE,60,5.0,7.0,66,0.00,,,0.00,VWS V14.00,2013-01-23 02:54:00,
2013-01-22 20:59:00,20.4,10.9,30.35,NE,54,2.0,6.0,66,0.00,,,0.00,VWS V14.00,2013-01-23 02:59:00,
2013-01-22 21:04:00,20.3,10.8,30.36,NE,56,4.0,6.0,66,0.00,,,0.00,VWS V14.00,2013-01-23 03:04:00,
2013-01-22 21:09:00,20.2,11.0,30.35,ENE,68,3.0,7.0,67,0.00,,,0.00,VWS V14.00,2013-01-23 03:09:00,
2013-01-22 21:14:00,20.1,10.9,30.36,NE,46,3.0,7.0,67,0.00,,,0.00,VWS V14.00,2013-01-23 03:14:00,
2013-01-22 21:19:00,19.9,10.7,30.36,NE,55,3.0,5.0,67,0.00,,,0.00,VWS V14.00,2013-01-23 03:19:00,
2013-01-22 21:24:00,19.8,11.0,30.36,NE,53,5.0,7.0,68,0.00,,,0.00,VWS V14.00,2013-01-23 03:24:00,
2013-01-22 21:29:00,19.7,10.5,30.36,NE,48,5.0,5.0,67,0.00,,,0.00,VWS V14.00,2013-01-23 03:29:00,
2013-01-22 21:34:00,19.6,10.8,30.36,NE,45,3.0,5.0,68,0.00,,,0.00,VWS V14.00,2013-01-23 03:34:00,
2013-01-22 21:39:00,19.5,10.7,30.36,NE,45,4.0,5.0,68,0.00,,,0.00,VWS V14.00,2013-01-23 03:39:00,
2013-01-22 21:44:00,19.4,10.9,30.36,NE,45,3.0,5.0,69,0.00,,,0.00,VWS V14.00,2013-01-23 03:44:00,
2013-01-22 21:49:00,19.3,10.8,30.37,ENE,58,3.0,6.0,69,0.00,,,0.00,VWS V14.00,2013-01-23 03:49:00,
2013-01-22 21:54:00,19.0,10.5,30.36,NE,52,4.0,5.0,69,0.00,,,0.00,VWS V14.00,2013-01-23 03:54:00,
2013-01-22 21:59:00,18.9,10.8,30.36,ENE,58,2.0,7.0,70,0.00,,,0.00,VWS V14.00,2013-01-23 03:59:00,
2013-01-22 22:04:00,18.8,10.6,30.36,NE,55,3.0,5.0,70,0.00,,,0.00,VWS V14.00,2013-01-23 04:04:00,
2013-01-22 22:09:00,18.6,10.5,30.36,NE,56,2.0,6.0,70,0.00,,,0.00,VWS V14.00,2013-01-23 04:09:00,
2013-01-22 22:15:00,18.6,10.5,30.36,ENE,68,3.0,5.0,70,0.00,,,0.00,VWS V14.00,2013-01-23 04:15:00,
2013-01-22 22:20:00,18.4,10.3,30.35,ENE,68,3.0,6.0,70,0.00,,,0.00,VWS V14.00,2013-01-23 04:20:00,
2013-01-22 22:25:00,18.4,10.6,30.36,ENE,68,3.0,6.0,71,0.00,,,0.00,VWS V14.00,2013-01-23 04:25:00,
2013-01-22 22:30:00,18.4,10.6,30.36,NE,45,3.0,6.0,71,0.00,,,0.00,VWS V14.00,2013-01-23 04:30:00,
2013-01-22 22:35:00,18.4,10.6,30.36,NE,45,3.0,6.0,71,0.00,,,0.00,VWS V14.00,2013-01-23 04:35:00,
2013-01-22 22:40:00,18.4,10.9,30.36,NE,45,3.0,5.0,72,0.00,,,0.00,VWS V14.00,2013-01-23 04:40:00,
2013-01-22 22:45:00,18.3,10.5,30.36,NE,45,2.0,5.0,71,0.00,,,0.00,VWS V14.00,2013-01-23 04:45:00,
2013-01-22 22:50:00,18.1,10.0,30.36,ENE,68,2.0,5.0,70,0.00,,,0.00,VWS V14.00,2013-01-23 04:50:00,
2013-01-22 22:55:00,18.0,10.2,30.36,NE,45,3.0,4.0,71,0.00,,,0.00,VWS V14.00,2013-01-23 04:55:00,
2013-01-22 23:00:00,17.9,10.1,30.37,NE,45,3.0,7.0,71,0.00,,,0.00,VWS V14.00,2013-01-23 05:00:00,
2013-01-22 23:05:00,17.7,10.2,30.37,NE,45,3.0,5.0,72,0.00,,,0.00,VWS V14.00,2013-01-23 05:05:00,
2013-01-22 23:10:00,17.5,10.3,30.36,NE,45,3.0,5.0,73,0.00,,,0.00,VWS V14.00,2013-01-23 05:10:00,
2013-01-22 23:15:00,17.3,10.4,30.36,NE,45,3.0,6.0,74,0.00,,,0.00,VWS V14.00,2013-01-23 05:15:00,
2013-01-22 23:20:00,17.2,10.4,30.36,ENE,68,3.0,6.0,74,0.00,,,0.00,VWS V14.00,2013-01-23 05:20:00,
2013-01-22 23:25:00,17.0,10.2,30.36,NE,45,3.0,7.0,74,0.00,,,0.00,VWS V14.00,2013-01-23 05:25:00,
2013-01-22 23:30:00,16.9,9.8,30.36,NE,45,3.0,5.0,73,0.00,,,0.00,VWS V14.00,2013-01-23 05:30:00,
2013-01-22 23:35:00,16.8,10.3,30.36,NE,45,3.0,5.0,75,0.00,,,0.00,VWS V14.00,2013-01-23 05:35:00,
2013-01-22 23:40:00,16.8,10.0,30.36,ENE,68,3.0,6.0,74,0.00,,,0.00,VWS V14.00,2013-01-23 05:40:00,
2013-01-22 23:45:00,16.8,10.0,30.36,NE,45,2.0,5.0,74,0.00,,,0.00,VWS V14.00,2013-01-23 05:45:00,
2013-01-22 23:50:00,16.7,9.9,30.36,ENE,68,2.0,4.0,74,0.00,,,0.00,VWS V14.00,2013-01-23 05:50:00,
2013-01-22 23:55:00,16.6,10.1,30.35,ENE,68,3.0,6.0,75,0.00,,,0.00,VWS V14.00,2013-01-23 05:55:00,